createdAt,value
2018-08-11T00:00:24.111Z,90.97
2018-08-11T00:02:53.462Z,92.21
2018-08-11T00:05:22.723Z,92.10
2018-08-11T00:07:52.145Z,91.05
2018-08-11T00:10:21.586Z,91.14
2018-08-11T00:12:50.903Z,91.44
2018-08-11T00:15:21.037Z,90.98
2018-08-11T00:17:50.379Z,91.71
2018-08-11T00:20:23.082Z,91.55
2018-08-11T00:22:52.429Z,91.89
2018-08-11T00:25:21.767Z,91.62
2018-08-11T00:27:51.133Z,92.10
2018-08-11T00:30:23.256Z,92.13
2018-08-11T00:32:52.598Z,91.90
2018-08-11T00:35:21.997Z,92.03
2018-08-11T00:37:51.396Z,91.97
2018-08-11T00:40:21.182Z,92.65
2018-08-11T00:42:51.244Z,92.15
2018-08-11T00:45:20.561Z,91.89
2018-08-11T00:47:50.062Z,91.90
2018-08-11T00:50:30.333Z,91.87
2018-08-11T00:52:59.705Z,92.13
2018-08-11T00:55:29.058Z,93.23
2018-08-11T00:57:58.367Z,93.73
2018-08-11T01:00:27.769Z,93.80
2018-08-11T01:02:57.134Z,93.53
2018-08-11T01:05:26.643Z,93.69
2018-08-11T01:07:56.552Z,93.41
2018-08-11T01:10:28.749Z,93.52
2018-08-11T01:12:58.088Z,94.00
2018-08-11T01:15:27.416Z,94.09
2018-08-11T01:17:56.698Z,94.35
2018-08-11T01:20:26.750Z,94.43
2018-08-11T01:22:56.772Z,94.72
2018-08-11T01:25:26.729Z,94.80
2018-08-11T01:27:56.796Z,94.00
2018-08-11T01:30:26.739Z,93.88
2018-08-11T01:32:56.881Z,93.76
2018-08-11T01:35:26.890Z,93.28
2018-08-11T01:37:56.838Z,93.33
2018-08-11T01:40:26.794Z,93.27
2018-08-11T01:42:56.896Z,92.87
2018-08-11T01:45:26.958Z,93.04
2018-08-11T01:47:56.867Z,93.30
2018-08-11T01:50:26.906Z,93.14
2018-08-11T01:52:56.892Z,93.17
2018-08-11T01:55:27.020Z,93.56
2018-08-11T01:57:57.069Z,94.81
2018-08-11T02:00:26.340Z,94.83
2018-08-11T02:02:56.695Z,94.59
2018-08-11T02:05:25.922Z,94.08
2018-08-11T02:07:55.180Z,94.04
2018-08-11T02:10:24.410Z,94.50
2018-08-11T02:12:53.773Z,94.24
2018-08-11T02:15:23.131Z,94.46
2018-08-11T02:17:52.386Z,94.83
2018-08-11T02:20:21.664Z,94.90
2018-08-11T02:22:50.960Z,95.16
2018-08-11T02:25:20.285Z,95.66
2018-08-11T02:27:49.528Z,95.64
2018-08-11T02:30:19.064Z,95.53
2018-08-11T02:32:48.432Z,96.00
2018-08-11T02:35:17.804Z,96.53
2018-08-11T02:37:47.140Z,96.29
2018-08-11T02:40:17.049Z,96.25
2018-08-11T02:42:46.540Z,96.66
2018-08-11T02:45:17.020Z,96.63
2018-08-11T02:47:47.120Z,96.71
2018-08-11T02:50:16.402Z,96.79
2018-08-11T02:52:45.794Z,96.99
2018-08-11T02:55:15.193Z,96.82
2018-08-11T02:57:44.567Z,96.53
2018-08-11T03:00:14.034Z,96.04
2018-08-11T03:02:43.280Z,96.40
2018-08-11T03:05:12.564Z,96.47
2018-08-11T03:07:41.884Z,96.33
2018-08-11T03:10:12.254Z,96.16
2018-08-11T03:12:41.797Z,96.46
2018-08-11T03:15:12.483Z,96.51
2018-08-11T03:17:41.999Z,96.17
2018-08-11T03:20:13.851Z,95.54
2018-08-11T03:22:43.619Z,95.82
2018-08-11T03:25:12.946Z,95.87
2018-08-11T03:27:42.392Z,96.02
2018-08-11T03:30:11.813Z,96.30
2018-08-11T03:32:41.094Z,96.36
2018-08-11T03:35:10.352Z,96.01
2018-08-11T03:37:39.740Z,96.41
2018-08-11T03:40:10.308Z,96.33
2018-08-11T03:42:39.950Z,96.04
2018-08-11T03:45:09.323Z,96.21
2018-08-11T03:47:38.668Z,95.91
2018-08-11T03:50:08.266Z,96.10
2018-08-11T03:52:37.905Z,95.77
2018-08-11T03:55:07.155Z,96.07
2018-08-11T03:57:36.500Z,96.24
2018-08-11T04:00:08.362Z,96.24
2018-08-11T04:02:37.737Z,95.41
2018-08-11T04:05:07.057Z,95.42
2018-08-11T04:07:36.295Z,95.49
2018-08-11T04:10:06.092Z,95.18
2018-08-11T04:12:35.459Z,95.27
2018-08-11T04:15:04.816Z,95.17
2018-08-11T04:17:38.433Z,95.05
2018-08-11T04:20:09.380Z,95.04
2018-08-11T04:22:38.802Z,94.77
2018-08-11T04:25:08.694Z,94.49
2018-08-11T04:27:38.301Z,94.52
2018-08-11T04:30:09.018Z,94.54
2018-08-11T04:32:38.420Z,94.93
2018-08-11T04:35:07.910Z,95.80
2018-08-11T04:37:37.216Z,96.17
2018-08-11T04:40:06.521Z,96.11
2018-08-11T04:42:35.864Z,96.07
2018-08-11T04:45:06.000Z,95.63
2018-08-11T04:47:35.312Z,96.01
2018-08-11T04:50:05.204Z,96.45
2018-08-11T04:52:34.757Z,95.93
2018-08-11T04:55:04.355Z,95.83
2018-08-11T04:57:33.769Z,95.58
2018-08-11T05:00:03.212Z,95.51
2018-08-11T05:02:32.486Z,96.11
2018-08-11T05:05:02.244Z,96.53
2018-08-11T05:07:31.710Z,96.25
2018-08-11T05:10:00.980Z,95.88
2018-08-11T05:12:30.353Z,95.98
2018-08-11T05:14:59.684Z,95.66
2018-08-11T05:17:30.859Z,95.57
2018-08-11T05:20:00.205Z,95.41
2018-08-11T05:22:29.468Z,95.10
2018-08-11T05:24:59.034Z,94.96
2018-08-11T05:27:29.104Z,94.67
2018-08-11T05:29:59.001Z,93.86
2018-08-11T05:32:29.072Z,92.76
2018-08-11T05:34:58.859Z,93.67
2018-08-11T05:37:28.928Z,93.67
2018-08-11T05:39:59.436Z,94.05
2018-08-11T05:42:28.943Z,93.81
2018-08-11T05:44:59.084Z,93.75
2018-08-11T05:47:29.072Z,93.28
2018-08-11T05:49:58.976Z,92.82
2018-08-11T05:52:29.036Z,93.26
2018-08-11T05:54:58.976Z,93.15
2018-08-11T05:57:29.116Z,92.75
2018-08-11T05:59:59.059Z,93.11
2018-08-11T06:02:29.153Z,92.54
2018-08-11T06:04:59.135Z,92.78
2018-08-11T06:07:29.143Z,92.89
2018-08-11T06:09:59.184Z,91.95
2018-08-11T06:12:29.234Z,92.39
2018-08-11T06:14:59.189Z,92.59
2018-08-11T06:17:29.250Z,92.63
2018-08-11T06:19:59.220Z,92.19
2018-08-11T06:22:29.349Z,92.05
2018-08-11T06:24:59.298Z,93.08
2018-08-11T06:27:29.311Z,92.20
2018-08-11T06:29:59.541Z,91.86
2018-08-11T06:32:29.467Z,91.81
2018-08-11T06:34:59.477Z,90.55
2018-08-11T06:37:29.532Z,90.28
2018-08-11T06:39:59.505Z,91.26
2018-08-11T06:42:29.730Z,91.69
2018-08-11T06:44:59.504Z,91.58
2018-08-11T06:47:29.629Z,92.16
2018-08-11T06:49:59.510Z,92.15
2018-08-11T06:52:29.602Z,91.60
2018-08-11T06:54:59.608Z,91.24
2018-08-11T06:57:29.957Z,91.00
2018-08-11T06:59:59.621Z,90.44
2018-08-11T07:02:29.679Z,90.29
2018-08-11T07:04:59.691Z,90.48
2018-08-11T07:07:29.683Z,90.86
2018-08-11T07:09:59.727Z,91.07
2018-08-11T07:12:29.700Z,91.31
2018-08-11T07:14:59.791Z,91.26
2018-08-11T07:17:29.723Z,91.55
2018-08-11T07:19:59.721Z,91.23
2018-08-11T07:22:29.786Z,91.50
2018-08-11T07:24:59.994Z,91.16
2018-08-11T07:27:29.771Z,89.66
2018-08-11T07:29:59.788Z,88.94
2018-08-11T07:32:29.848Z,87.34
2018-08-11T07:34:59.876Z,86.42
2018-08-11T07:37:30.402Z,86.50
2018-08-11T07:40:00.209Z,85.05
2018-08-11T07:42:29.922Z,85.26
2018-08-11T07:44:59.952Z,84.35
2018-08-11T07:47:29.985Z,85.58
2018-08-11T07:49:59.952Z,82.51
2018-08-11T07:52:30.008Z,83.01
2018-08-11T07:54:59.968Z,81.11
2018-08-11T07:57:29.988Z,80.61
2018-08-11T08:00:00.034Z,80.40
2018-08-11T08:02:30.092Z,79.24
2018-08-11T08:05:00.116Z,79.65
2018-08-11T08:07:30.154Z,78.77
2018-08-11T08:10:00.143Z,78.62
2018-08-11T08:12:30.390Z,79.19
2018-08-11T08:15:00.200Z,79.45
2018-08-11T08:17:30.092Z,80.66
2018-08-11T08:20:00.233Z,80.01
2018-08-11T08:22:30.141Z,80.12
2018-08-11T08:25:00.152Z,79.01
2018-08-11T08:27:30.209Z,79.57
2018-08-11T08:30:00.348Z,79.77
2018-08-11T08:32:30.205Z,79.17
2018-08-11T08:35:00.363Z,78.42
2018-08-11T08:37:30.239Z,78.20
2018-08-11T08:40:00.254Z,77.66
2018-08-11T08:42:30.398Z,76.70
2018-08-11T08:45:00.381Z,74.53
2018-08-11T08:47:31.498Z,73.82
2018-08-11T08:50:00.585Z,73.75
2018-08-11T08:52:30.342Z,70.82
2018-08-11T08:55:00.405Z,70.22
2018-08-11T08:57:30.341Z,69.78
2018-08-11T09:00:00.433Z,70.19
2018-08-11T09:02:30.542Z,70.48
2018-08-11T09:05:00.439Z,68.73
2018-08-11T09:07:30.529Z,67.33
2018-08-11T09:10:00.485Z,65.11
2018-08-11T09:12:30.502Z,64.07
2018-08-11T09:15:00.545Z,61.61
2018-08-11T09:17:29.780Z,63.29
2018-08-11T09:19:59.048Z,62.94
2018-08-11T09:22:28.265Z,61.88
2018-08-11T09:24:57.464Z,62.45
2018-08-11T09:27:26.626Z,63.39
2018-08-11T09:29:55.894Z,62.46
2018-08-11T09:32:25.482Z,62.94
2018-08-11T09:34:54.621Z,62.79
2018-08-11T09:37:23.764Z,62.24
2018-08-11T09:39:52.987Z,60.80
2018-08-11T09:42:22.212Z,58.32
2018-08-11T09:44:51.398Z,61.15
2018-08-11T09:47:20.812Z,59.29
2018-08-11T09:49:49.988Z,57.21
2018-08-11T09:52:19.217Z,54.57
2018-08-11T09:54:48.440Z,55.76
2018-08-11T09:57:17.590Z,57.83
2018-08-11T09:59:46.744Z,57.65
2018-08-11T10:02:19.368Z,55.62
2018-08-11T10:04:48.556Z,55.87
2018-08-11T10:07:17.804Z,55.27
2018-08-11T10:09:46.932Z,50.57
2018-08-11T10:12:16.229Z,55.67
2018-08-11T10:14:45.408Z,55.92
2018-08-11T10:17:14.520Z,53.28
2018-08-11T10:19:43.730Z,53.56
2018-08-11T10:22:12.885Z,53.75
2018-08-11T10:24:42.093Z,52.48
2018-08-11T10:27:11.243Z,53.46
2018-08-11T10:29:40.439Z,52.46
2018-08-11T10:32:09.640Z,53.24
2018-08-11T10:34:38.818Z,56.33
2018-08-11T10:37:07.929Z,56.31
2018-08-11T10:39:37.079Z,57.91
2018-08-11T10:42:06.476Z,56.47
2018-08-11T10:44:35.571Z,53.33
2018-08-11T10:47:04.844Z,54.53
2018-08-11T10:49:33.980Z,51.15
2018-08-11T10:52:03.632Z,49.03
2018-08-11T10:54:33.669Z,51.21
2018-08-11T10:57:14.683Z,54.03
2018-08-11T10:59:43.985Z,53.87
2018-08-11T11:02:25.721Z,53.99
2018-08-11T11:04:54.777Z,53.50
2018-08-11T11:07:23.828Z,52.08
2018-08-11T11:09:52.940Z,49.92
2018-08-11T11:12:22.070Z,52.82
2018-08-11T11:14:51.261Z,52.85
2018-08-11T11:17:20.433Z,52.87
2018-08-11T11:19:49.523Z,50.91
2018-08-11T11:22:18.627Z,52.10
2018-08-11T11:24:47.662Z,53.43
2018-08-11T11:27:16.869Z,54.94
2018-08-11T11:29:45.986Z,51.27
2018-08-11T11:32:15.053Z,53.98
2018-08-11T11:34:44.192Z,51.57
2018-08-11T11:37:13.320Z,50.08
2018-08-11T11:39:42.453Z,50.27
2018-08-11T11:42:11.483Z,53.31
2018-08-11T11:44:40.585Z,52.13
2018-08-11T11:47:09.641Z,53.26
2018-08-11T11:49:38.714Z,52.21
2018-08-11T11:52:07.913Z,51.50
2018-08-11T11:54:37.210Z,53.04
2018-08-11T11:57:06.796Z,51.91
2018-08-11T11:59:35.877Z,48.35
2018-08-11T12:02:07.642Z,53.34
2018-08-11T12:04:37.843Z,52.42
2018-08-11T12:07:07.389Z,49.40
2018-08-11T12:09:36.456Z,49.53
2018-08-11T12:12:05.883Z,49.58
2018-08-11T12:14:35.091Z,48.93
2018-08-11T12:17:04.435Z,48.16
2018-08-11T12:19:34.366Z,46.99
2018-08-11T12:22:04.422Z,44.60
2018-08-11T12:24:34.420Z,48.97
2018-08-11T12:27:42.033Z,48.25
2018-08-11T12:30:13.055Z,45.27
2018-08-11T12:32:47.757Z,46.96
2018-08-11T12:35:16.932Z,47.05
2018-08-11T12:37:47.626Z,46.25
2018-08-11T12:40:17.401Z,48.92
2018-08-11T12:42:46.551Z,46.05
2018-08-11T12:45:15.652Z,45.93
2018-08-11T12:48:56.202Z,47.05
2018-08-11T12:51:29.871Z,47.90
2018-08-11T12:54:02.818Z,46.15
2018-08-11T12:56:38.953Z,45.45
2018-08-11T12:59:14.864Z,46.20
2018-08-11T13:01:44.167Z,42.87
2018-08-11T13:04:13.378Z,43.79
2018-08-11T13:06:42.720Z,43.66
2018-08-11T13:09:12.279Z,47.07
2018-08-11T13:11:41.595Z,45.33
2018-08-11T13:14:10.868Z,47.25
2018-08-11T13:16:40.222Z,42.84
2018-08-11T13:19:09.483Z,44.76
2018-08-11T13:21:38.795Z,44.75
2018-08-11T13:24:08.110Z,43.73
2018-08-11T13:26:38.090Z,42.81
2018-08-11T13:29:07.336Z,41.85
2018-08-11T13:31:36.673Z,44.03
2018-08-11T13:34:06.033Z,42.56
2018-08-11T13:36:35.313Z,43.45
2018-08-11T13:39:06.673Z,39.54
2018-08-11T13:41:45.665Z,41.95
2018-08-11T13:44:16.750Z,43.69
2018-08-11T13:46:46.075Z,41.19
2018-08-11T13:49:15.449Z,40.55
2018-08-11T13:51:45.505Z,40.39
2018-08-11T13:54:14.796Z,39.37
2018-08-11T13:56:43.977Z,43.00
2018-08-11T13:59:13.248Z,41.24
2018-08-11T14:01:42.457Z,46.05
2018-08-11T14:04:11.798Z,39.74
2018-08-11T14:06:41.108Z,44.72
2018-08-11T14:09:10.756Z,38.76
2018-08-11T14:11:39.982Z,37.94
2018-08-11T14:14:09.266Z,39.95
2018-08-11T14:16:38.619Z,40.90
2018-08-11T14:19:07.952Z,38.78
2018-08-11T14:21:37.250Z,39.23
2018-08-11T14:24:08.486Z,34.46
2018-08-11T14:26:38.250Z,35.06
2018-08-11T14:29:14.828Z,36.32
2018-08-11T14:31:43.986Z,36.41
2018-08-11T14:34:13.728Z,34.61
2018-08-11T14:36:42.938Z,32.60
2018-08-11T14:39:12.178Z,33.73
2018-08-11T14:41:41.644Z,35.38
2018-08-11T14:44:10.899Z,32.40
2018-08-11T14:46:40.338Z,32.58
2018-08-11T14:49:10.320Z,30.87
2018-08-11T14:51:40.071Z,32.07
2018-08-11T14:54:10.079Z,30.60
2018-08-11T14:56:40.066Z,30.24
2018-08-11T14:59:10.162Z,30.99
2018-08-11T15:01:39.694Z,31.44
2018-08-11T15:04:08.851Z,32.39
2018-08-11T15:06:38.026Z,32.20
2018-08-11T15:09:08.810Z,33.38
2018-08-11T15:11:38.017Z,31.55
2018-08-11T15:14:07.309Z,30.91
2018-08-11T15:16:36.536Z,31.18
2018-08-11T15:19:05.856Z,33.23
2018-08-11T15:21:35.070Z,30.44
2018-08-11T15:24:04.304Z,33.62
2018-08-11T15:26:33.495Z,29.82
2018-08-11T15:29:02.809Z,34.06
2018-08-11T15:31:32.002Z,30.19
2018-08-11T15:34:01.131Z,33.36
2018-08-11T15:36:30.263Z,34.06
2018-08-11T15:38:59.321Z,30.07
2018-08-11T15:41:28.437Z,33.33
2018-08-11T15:43:57.777Z,31.47
2018-08-11T15:46:26.996Z,32.12
2018-08-11T15:48:56.424Z,31.31
2018-08-11T15:51:26.035Z,28.53
2018-08-11T15:53:55.131Z,30.50
2018-08-11T15:56:24.251Z,31.53
2018-08-11T15:58:53.963Z,29.10
2018-08-11T16:01:23.122Z,32.79
2018-08-11T16:03:52.258Z,31.84
2018-08-11T16:06:21.689Z,32.13
2018-08-11T16:08:50.787Z,34.49
2018-08-11T16:11:20.016Z,34.32
2018-08-11T16:13:49.154Z,29.87
2018-08-11T16:16:18.323Z,33.06
2018-08-11T16:18:47.451Z,33.47
2018-08-11T16:21:16.688Z,34.93
2018-08-11T16:23:45.830Z,34.56
2018-08-11T16:26:14.970Z,35.29
2018-08-11T16:28:44.297Z,34.48
2018-08-11T16:31:13.524Z,35.32
2018-08-11T16:33:42.711Z,35.99
2018-08-11T16:36:11.851Z,34.64
2018-08-11T16:38:41.063Z,37.14
2018-08-11T16:41:10.982Z,35.77
2018-08-11T16:43:41.221Z,37.72
2018-08-11T16:46:11.149Z,39.13
2018-08-11T16:48:41.205Z,39.10
2018-08-11T16:51:10.399Z,37.88
2018-08-11T16:53:39.695Z,36.16
2018-08-11T16:56:08.947Z,38.57
2018-08-11T16:58:38.119Z,37.52
2018-08-11T17:01:07.304Z,38.91
2018-08-11T17:03:36.825Z,37.78
2018-08-11T17:06:06.029Z,37.55
2018-08-11T17:08:35.248Z,39.42
2018-08-11T17:11:04.367Z,38.21
2018-08-11T17:13:33.491Z,39.09
2018-08-11T17:16:02.626Z,38.82
2018-08-11T17:18:31.770Z,38.89
2018-08-11T17:21:00.899Z,40.02
2018-08-11T17:23:30.006Z,39.51
2018-08-11T17:25:59.288Z,38.33
2018-08-11T17:28:28.414Z,40.28
2018-08-11T17:30:57.547Z,40.23
2018-08-11T17:33:26.618Z,40.66
2018-08-11T17:35:55.751Z,38.71
2018-08-11T17:38:24.849Z,40.92
2018-08-11T17:40:53.945Z,40.54
2018-08-11T17:43:23.134Z,41.68
2018-08-11T17:45:52.901Z,42.76
